Time;durP1;ratioP1;P1;durP2;ratioP2;P2;SDS_P1;SDS_P2;PMS_P1;PMS_P2;Temp;Humidity;BMP_temperature;BMP_pressure;BME280_temperature;BME280_humidity;BME280_pressure;Samples;Min_cycle;Max_cycle;Signal;HPM_P1;HPM_P2
2021/12/04 00:00:14;;;;;;;6.60;2.53;;;;;;;3.79;79.17;99436.63;5088018;28;20097;-70
2021/12/04 00:03:17;;;;;;;5.97;2.00;;;;;;;3.84;78.74;99416.59;5087577;28;20047;-69
2021/12/04 00:06:26;;;;;;;3.65;1.85;;;;;;;3.90;78.31;99407.75;5088236;28;20058;-70
2021/12/04 00:09:30;;;;;;;3.83;2.22;;;;;;;3.89;78.05;99406.91;5068060;28;20052;-70
2021/12/04 00:12:34;;;;;;;3.25;2.13;;;;;;;3.75;78.99;99401.47;5085952;28;20055;-70
2021/12/04 00:15:37;;;;;;;5.97;2.15;;;;;;;3.85;78.16;99404.50;5086568;28;20070;-70
2021/12/04 00:18:40;;;;;;;7.22;1.95;;;;;;;3.88;78.30;99391.44;5087063;28;20100;-70
2021/12/04 00:21:44;;;;;;;3.72;1.80;;;;;;;3.92;78.94;99380.03;5067228;28;20094;-70
2021/12/04 00:24:48;;;;;;;4.53;2.10;;;;;;;3.63;79.55;99361.44;5067233;28;20048;-70
2021/12/04 00:27:51;;;;;;;4.35;2.47;;;;;;;3.81;78.17;99367.59;5068003;28;20494;-70
2021/12/04 00:30:54;;;;;;;;;;;;;;;3.77;79.48;99360.88;5076906;28;20066;-70
2021/12/04 00:33:58;;;;;;;3.50;1.83;;;;;;;3.79;79.33;99364.22;5087581;28;20338;-70
2021/12/04 00:37:13;;;;;;;4.07;1.92;;;;;;;3.83;79.49;99347.69;5086812;28;20042;-70
2021/12/04 00:50:13;;;;;;;3.08;1.50;;;;;;;3.76;79.72;99341.09;5086824;28;20046;-70
2021/12/04 00:53:16;;;;;;;3.53;1.73;;;;;;;3.84;80.21;99338.19;5087091;28;20051;-70
2021/12/04 00:56:19;;;;;;;;;;;;;;;3.90;79.81;99340.50;5088127;28;20569;-69
2021/12/04 00:59:23;;;;;;;2.95;1.75;;;;;;;3.72;80.55;99326.63;5086965;28;20401;-70
2021/12/04 01:02:27;;;;;;;5.63;2.13;;;;;;;3.52;82.49;99327.47;5087449;28;20428;-70
2021/12/04 01:05:29;;;;;;;3.80;1.98;;;;;;;3.66;81.68;99319.97;5086649;28;20042;-70
2021/12/04 01:08:33;;;;;;;5.00;2.00;;;;;;;3.69;81.77;99324.16;5086286;28;20558;-70
2021/12/04 01:11:37;;;;;;;;;;;;;;;3.62;81.82;99318.41;5087096;28;20472;-70
2021/12/04 01:14:40;;;;;;;3.38;2.05;;;;;;;3.55;80.46;99319.59;5085728;28;20285;-70
2021/12/04 01:17:43;;;;;;;5.65;1.92;;;;;;;3.64;81.22;99311.44;5087647;28;20058;-70
2021/12/04 01:20:47;;;;;;;;;;;;;;;3.72;81.88;99308.53;5086936;28;20456;-70
2021/12/04 01:23:50;;;;;;;3.88;1.73;;;;;;;3.77;81.82;99304.00;5086490;28;19973;-70
2021/12/04 01:26:54;;;;;;;4.95;1.77;;;;;;;3.85;82.39;99299.31;5086648;28;20082;-70
2021/12/04 01:29:57;;;;;;;3.40;1.50;;;;;;;3.73;82.33;99299.84;5066437;28;20060;-70
2021/12/04 01:33:02;;;;;;;;;;;;;;;3.75;82.39;99304.97;5067635;28;20528;-70
2021/12/04 01:36:05;;;;;;;;;;;;;;;3.67;82.98;99295.81;5068013;28;19923;-70
2021/12/04 01:39:08;;;;;;;4.63;1.70;;;;;;;3.80;82.97;99290.94;5086627;28;20429;-69
2021/12/04 01:42:12;;;;;;;3.72;1.75;;;;;;;3.70;82.77;99289.63;5085379;28;20059;-70
2021/12/04 01:45:17;;;;;;;4.00;1.90;;;;;;;3.63;83.43;99283.06;5086281;28;20045;-70
2021/12/04 01:48:21;;;;;;;3.88;2.00;;;;;;;3.58;83.63;99282.44;5086674;28;20043;-70
2021/12/04 01:51:24;;;;;;;5.55;2.00;;;;;;;3.56;83.88;99271.31;5086837;28;20043;-70
2021/12/04 01:54:27;;;;;;;3.55;2.00;;;;;;;3.55;84.02;99270.50;5086886;28;20051;-70
2021/12/04 01:57:31;;;;;;;;;;;;;;;3.65;83.56;99260.59;5086417;28;20066;-70
2021/12/04 02:00:40;;;;;;;3.47;2.22;;;;;;;3.48;82.05;99259.59;5085288;28;19974;-70
2021/12/04 02:03:44;;;;;;;3.35;1.70;;;;;;;3.56;82.50;99245.47;5086598;28;20101;-70
2021/12/04 02:06:47;;;;;;;3.38;1.90;;;;;;;3.62;83.29;99240.03;5086380;28;20038;-70
2021/12/04 02:09:50;;;;;;;3.38;1.63;;;;;;;3.65;83.02;99240.75;5086468;28;20093;-70
2021/12/04 02:12:54;;;;;;;3.40;1.45;;;;;;;3.58;83.35;99234.16;5066451;28;20417;-70
2021/12/04 02:16:01;;;;;;;3.63;1.70;;;;;;;3.52;84.33;99233.59;5066495;28;20051;-70
2021/12/04 02:19:05;;;;;;;3.22;1.58;;;;;;;3.46;84.68;99225.19;5066215;28;20355;-70
2021/12/04 02:22:08;;;;;;;;;;;;;;;3.50;84.55;99215.56;5065963;28;20074;-70
2021/12/04 02:25:11;;;;;;;4.15;1.58;;;;;;;3.40;85.28;99215.13;5073185;28;20361;-70
2021/12/04 02:28:14;;;;;;;5.32;1.52;;;;;;;3.48;84.68;99202.72;5086062;28;20043;-70
2021/12/04 02:31:18;;;;;;;;;;;;;;;3.55;84.67;99202.47;5086113;28;20127;-70
2021/12/04 02:34:25;;;;;;;6.68;1.80;;;;;;;3.52;84.64;99208.59;5085555;28;20007;-70
2021/12/04 02:37:28;;;;;;;2.67;1.10;;;;;;;3.52;84.63;99202.59;5087818;28;20515;-70
2021/12/04 02:40:32;;;;;;;4.03;1.38;;;;;;;3.56;84.52;99199.78;5088695;28;20142;-70
2021/12/04 02:43:35;;;;;;;;;;;;;;;3.57;84.64;99185.94;5089439;28;20043;-70
2021/12/04 02:46:38;;;;;;;3.45;1.80;;;;;;;3.49;84.35;99183.72;5089600;28;19934;-70
2021/12/04 02:49:42;;;;;;;4.13;1.10;;;;;;;3.36;85.36;99182.59;5090210;28;20094;-70
2021/12/04 02:52:46;;;;;;;3.20;1.10;;;;;;;3.33;85.39;99187.06;5090072;28;20043;-70
2021/12/04 02:55:50;;;;;;;;;;;;;;;3.52;84.67;99181.91;5089792;28;20061;-70
2021/12/04 02:59:00;;;;;;;3.95;1.25;;;;;;;3.44;84.59;99179.66;5088393;28;19923;-70
2021/12/04 03:02:06;;;;;;;2.15;1.13;;;;;;;3.48;84.93;99182.06;5068966;28;20055;-70
2021/12/04 03:05:10;;;;;;;2.22;1.00;;;;;;;3.53;84.83;99174.09;5068367;28;20047;-70
2021/12/04 03:08:14;;;;;;;2.53;1.25;;;;;;;3.59;84.65;99173.81;5077426;28;20138;-70
2021/12/04 03:11:18;;;;;;;4.38;1.30;;;;;;;3.39;85.45;99172.13;5088984;28;20128;-71
2021/12/04 03:14:22;;;;;;;2.63;1.10;;;;;;;3.26;85.97;99165.81;5089153;28;20101;-70
2021/12/04 03:17:26;;;;;;;3.47;1.40;;;;;;;3.33;86.20;99161.22;5089044;28;20050;-70
2021/12/04 03:20:29;;;;;;;2.60;1.30;;;;;;;3.49;85.43;99163.03;5089009;28;20038;-69
2021/12/04 03:23:40;;;;;;;;;;;;;;;3.40;85.30;99147.94;5088486;28;20042;-69
2021/12/04 03:26:47;;;;;;;2.08;1.08;;;;;;;3.35;85.88;99137.00;5088681;28;20124;-69
2021/12/04 03:29:58;;;;;;;5.20;1.45;;;;;;;3.36;85.48;99132.66;5088112;28;20047;-70
2021/12/04 03:43:09;;;;;;;3.08;1.42;;;;;;;3.39;85.28;99135.13;5088873;28;20047;-70
2021/12/04 03:46:15;;;;;;;4.05;1.70;;;;;;;3.46;84.80;99121.84;5088590;28;20054;-70
2021/12/04 03:49:18;;;;;;;3.00;1.33;;;;;;;3.46;84.90;99111.50;5067971;28;20051;-70
2021/12/04 03:52:22;;;;;;;;;;;;;;;3.47;85.14;99110.59;5087684;28;20101;-69
2021/12/04 03:55:25;;;;;;;2.60;1.45;;;;;;;3.30;85.00;99123.44;5087615;28;19922;-70
2021/12/04 03:58:29;;;;;;;;;;;;;;;3.30;84.77;99120.84;5111918;27;20469;-70
2021/12/04 04:01:32;;;;;;;2.20;1.00;;;;;;;3.29;85.29;99118.31;5068663;28;19920;-70
2021/12/04 04:04:36;;;;;;;2.30;1.10;;;;;;;3.21;85.58;99118.69;5069923;28;20094;-69
2021/12/04 04:07:39;;;;;;;2.47;1.00;;;;;;;3.19;86.32;99115.31;5087701;28;20462;-70
2021/12/04 04:10:43;;;;;;;2.83;1.17;;;;;;;3.32;85.75;99113.88;5087595;28;20153;-70
2021/12/04 04:13:46;;;;;;;2.80;1.30;;;;;;;3.33;85.11;99100.06;5088080;28;20437;-70
2021/12/04 04:16:51;;;;;;;5.20;1.98;;;;;;;3.28;85.14;99096.00;5088204;28;20097;-70
2021/12/04 04:19:54;;;;;;;2.80;1.65;;;;;;;3.26;85.71;99096.09;5087168;28;20046;-69
2021/12/04 04:22:57;;;;;;;4.10;2.00;;;;;;;3.20;85.18;99083.44;5087617;28;20047;-70
2021/12/04 04:26:01;;;;;;;3.30;1.60;;;;;;;3.17;85.24;99081.00;5087255;28;20047;-70
2021/12/04 04:29:05;;;;;;;2.88;1.65;;;;;;;3.20;85.11;99063.59;5086056;28;20076;-70
2021/12/04 04:32:08;;;;;;;3.33;2.15;;;;;;;3.20;85.57;99058.44;5086602;28;20114;-70
2021/12/04 04:35:15;;;;;;;;;;;;;;;3.31;84.78;99055.34;5087769;28;20093;-70
2021/12/04 05:02:33;;;;;;;3.92;2.08;;;;;;;3.16;85.87;99035.38;5069966;28;20527;-70
2021/12/04 05:15:14;;;;;;;2.70;1.85;;;;;;;3.01;86.50;99042.09;5086400;28;20070;-70
2021/12/04 05:21:22;;;;;;;5.90;2.42;;;;;;;3.11;85.33;99034.78;5087157;28;20149;-70
2021/12/04 05:24:25;;;;;;;;;;;;;;;3.14;84.92;99029.47;5087779;28;20169;-70
2021/12/04 05:27:28;;;;;;;3.85;2.30;;;;;;;3.28;84.73;99029.66;5086692;28;20015;-69
2021/12/04 05:30:32;;;;;;;5.07;2.35;;;;;;;3.22;84.19;99030.81;5085791;28;20085;-70
2021/12/04 05:33:35;;;;;;;3.72;1.85;;;;;;;3.21;84.56;99021.38;5086682;28;20058;-70
2021/12/04 05:36:38;;;;;;;3.13;2.00;;;;;;;3.21;84.52;99023.13;5087125;28;20093;-70
2021/12/04 05:39:42;;;;;;;6.90;4.75;;;;;;;3.36;84.27;99035.31;5087169;28;20075;-70
2021/12/04 05:42:45;;;;;;;;;;;;;;;3.27;84.40;99030.59;5086743;28;20143;-70
2021/12/04 05:46:37;;;;;;;7.32;2.40;;;;;;;3.18;84.63;99039.59;5085526;28;19919;-70
2021/12/04 05:58:57;;;;;;;4.03;2.10;;;;;;;3.13;84.28;99014.91;5085677;28;20051;-70
2021/12/04 06:02:01;;;;;;;3.28;2.08;;;;;;;3.15;84.76;99023.38;5086127;28;20112;-72
2021/12/04 06:05:05;;;;;;;4.05;2.70;;;;;;;3.26;84.38;99029.75;5086241;28;20112;-71
2021/12/04 06:08:08;;;;;;;3.50;2.17;;;;;;;3.31;84.23;99013.19;5086204;28;20511;-70
2021/12/04 06:11:11;;;;;;;4.05;2.30;;;;;;;3.26;84.39;99021.16;5086318;28;20063;-70
2021/12/04 06:14:16;;;;;;;4.20;2.58;;;;;;;3.30;84.57;99006.34;5089220;28;20046;-70
2021/12/04 06:17:20;;;;;;;17.38;12.13;;;;;;;3.22;84.06;99004.13;5090117;28;20046;-70
2021/12/04 06:23:46;;;;;;;5.15;2.42;;;;;;;3.25;84.99;99014.31;5090505;28;20508;-70
2021/12/04 06:26:49;;;;;;;3.88;2.40;;;;;;;3.23;84.83;99019.56;5090152;28;20097;-70
2021/12/04 06:29:52;;;;;;;3.65;2.40;;;;;;;3.20;84.29;99013.69;5089582;28;20098;-70
2021/12/04 06:32:56;;;;;;;3.42;2.42;;;;;;;3.25;84.83;99009.13;5091606;28;20051;-70
2021/12/04 06:36:00;;;;;;;4.18;2.90;;;;;;;3.09;85.74;99011.59;5090499;28;20096;-70
2021/12/04 06:39:03;;;;;;;3.50;2.22;;;;;;;3.03;85.66;99004.13;5087449;28;20042;-70
2021/12/04 06:42:07;;;;;;;5.35;2.67;;;;;;;3.03;85.70;99010.16;5089005;28;20114;-70
2021/12/04 06:45:11;;;;;;;;;;;;;;;3.06;85.68;99003.97;5089873;28;20042;-70
2021/12/04 06:48:23;;;;;;;5.45;2.90;;;;;;;3.05;85.51;98998.91;5089631;28;19931;-70
2021/12/04 06:51:39;;;;;;;6.63;2.53;;;;;;;3.21;85.05;99008.44;5089215;28;20042;-70
2021/12/04 06:55:17;;;;;;;3.35;2.35;;;;;;;3.30;84.56;99002.03;5089445;28;20502;-70
2021/12/04 06:58:13;;;;;;;3.30;2.22;;;;;;;3.38;84.24;99002.50;5088933;28;20042;-70
2021/12/04 07:01:16;;;;;;;4.40;2.63;;;;;;;3.23;84.37;99000.66;5089400;28;20093;-71
2021/12/04 07:04:20;;;;;;;6.82;2.58;;;;;;;3.22;84.47;98991.19;5089776;28;20047;-70
2021/12/04 07:07:24;;;;;;;6.10;2.45;;;;;;;3.33;84.16;98988.97;5090127;28;20054;-70
2021/12/04 07:10:27;;;;;;;;;;;;;;;3.35;84.04;98984.56;5089413;28;20062;-70
2021/12/04 07:13:32;;;;;;;4.00;2.67;;;;;;;3.33;83.90;98978.63;5089362;28;20372;-70
2021/12/04 07:16:35;;;;;;;3.90;2.58;;;;;;;3.31;83.86;98983.03;5088976;28;20042;-71
2021/12/04 07:19:39;;;;;;;;;;;;;;;3.09;85.19;98983.19;5089827;28;20047;-72
2021/12/04 07:22:42;;;;;;;5.40;2.83;;;;;;;3.14;85.42;98978.66;5089480;28;19976;-71
2021/12/04 07:25:46;;;;;;;4.03;2.70;;;;;;;3.31;84.99;98977.84;5089161;28;20086;-71
2021/12/04 07:28:49;;;;;;;4.28;3.17;;;;;;;3.38;84.88;98979.25;5089066;28;20494;-70
2021/12/04 07:31:52;;;;;;;5.00;3.42;;;;;;;3.35;84.83;98978.53;5088915;28;20075;-71
2021/12/04 07:34:56;;;;;;;5.40;3.78;;;;;;;3.38;84.33;98979.25;5088580;28;20097;-71
2021/12/04 07:38:00;;;;;;;4.32;3.00;;;;;;;3.44;84.31;98966.03;5088796;28;20051;-71
2021/12/04 07:41:04;;;;;;;5.80;3.40;;;;;;;3.45;83.88;98965.13;5089183;28;20082;-71
2021/12/04 07:44:10;;;;;;;;;;;;;;;3.27;84.66;98960.84;5089986;28;20054;-71
2021/12/04 07:47:14;;;;;;;46.30;31.98;;;;;;;3.16;85.12;98951.03;5088839;28;19910;-71
2021/12/04 07:54:57;;;;;;;16.98;11.60;;;;;;;3.15;86.01;98967.41;4926567;28;20061;-67
2021/12/04 07:58:01;;;;;;;9.45;5.55;;;;;;;3.10;85.78;98963.38;4947586;29;20133;-64
2021/12/04 08:04:14;;;;;;;6.18;3.65;;;;;;;3.20;85.34;98965.47;5191226;23;20053;-65
2021/12/04 08:19:22;;;;;;;4.55;3.10;;;;;;;3.20;85.27;98967.22;5012143;24;20049;-67
2021/12/04 08:22:25;;;;;;;;;;;;;;;3.27;85.35;98971.16;4875109;29;20515;-66
2021/12/04 08:25:30;;;;;;;3.70;2.67;;;;;;;3.27;84.67;98960.84;4872380;29;20011;-67
2021/12/04 08:28:35;;;;;;;4.47;3.00;;;;;;;3.21;85.47;98974.03;4850651;29;20052;-67
2021/12/04 08:31:38;;;;;;;3.45;2.78;;;;;;;3.29;85.07;98969.34;4853044;29;20080;-66
2021/12/04 08:34:41;;;;;;;3.60;2.70;;;;;;;3.31;84.58;98956.34;4858770;29;20525;-67
2021/12/04 08:37:46;;;;;;;3.95;2.65;;;;;;;3.33;84.55;98955.38;4855373;29;20469;-67
2021/12/04 08:40:50;;;;;;;4.03;2.88;;;;;;;3.33;84.73;98960.53;4855743;29;20150;-67
2021/12/04 08:43:54;;;;;;;4.93;3.08;;;;;;;3.24;85.65;98960.97;4855392;29;20056;-66
2021/12/04 08:46:58;;;;;;;3.53;2.60;;;;;;;3.40;85.31;98961.91;4855649;29;20109;-67
2021/12/04 08:50:01;;;;;;;;;;;;;;;3.53;84.41;98951.00;4855477;29;20097;-67
2021/12/04 08:57:25;;;;;;;3.63;2.55;;;;;;;3.43;84.75;98948.03;4798789;29;20094;-71
2021/12/04 09:00:46;;;;;;;3.83;2.92;;;;;;;3.45;84.71;98952.22;4797724;29;20071;-71
2021/12/04 09:04:11;;;;;;;3.50;2.58;;;;;;;3.54;84.58;98952.66;4817345;29;20094;-71
2021/12/04 09:07:15;;;;;;;3.15;2.13;;;;;;;3.55;84.03;98954.34;4818050;29;20190;-71
2021/12/04 09:10:19;;;;;;;4.10;2.90;;;;;;;3.58;84.30;98964.53;4817949;29;20053;-71
2021/12/04 09:13:24;;;;;;;4.07;2.60;;;;;;;3.54;83.95;98974.16;4813112;29;20053;-71
2021/12/04 09:16:28;;;;;;;3.15;2.38;;;;;;;3.55;83.86;98964.69;4803645;29;20470;-71
2021/12/04 09:19:33;;;;;;;4.60;2.70;;;;;;;3.56;84.57;98961.19;4818749;29;20482;-71
2021/12/04 09:22:37;;;;;;;5.75;2.85;;;;;;;3.53;84.60;98964.75;4810378;29;20075;-71
2021/12/04 09:25:44;;;;;;;3.97;2.83;;;;;;;3.54;84.95;98963.00;4781356;29;20063;-71
2021/12/04 09:29:05;;;;;;;4.13;2.35;;;;;;;3.58;85.10;98964.53;4781576;29;20130;-71
2021/12/04 10:35:21;;;;;;;3.55;2.60;;;;;;;3.85;84.98;98849.41;4785037;29;20108;-72
2021/12/04 10:38:26;;;;;;;5.00;3.10;;;;;;;3.79;84.95;98829.03;4784638;29;20058;-71
2021/12/04 10:41:35;;;;;;;4.53;3.75;;;;;;;3.78;85.25;98827.38;4788802;29;20062;-72
2021/12/04 10:44:42;;;;;;;8.00;3.63;;;;;;;3.77;85.46;98836.06;4802051;29;20049;-71
2021/12/04 10:47:53;;;;;;;7.43;3.22;;;;;;;3.83;85.74;98827.97;4802985;29;20053;-72
2021/12/04 10:51:32;;;;;;;5.60;3.65;;;;;;;3.88;85.38;98817.38;4802494;29;20492;-71
2021/12/04 10:54:29;;;;;;;4.82;3.85;;;;;;;3.95;85.06;98806.63;4800509;29;20045;-71
2021/12/04 10:58:18;;;;;;;4.70;3.30;;;;;;;3.96;85.04;98805.75;4811562;29;20555;-71
2021/12/04 11:04:41;;;;;;;5.87;4.10;;;;;;;4.05;84.90;98788.03;4793598;29;20609;-71
2021/12/04 11:18:35;;;;;;;5.28;3.80;;;;;;;4.02;85.21;98776.13;4802722;29;20054;-71
2021/12/04 11:45:09;;;;;;;7.07;4.43;;;;;;;3.92;85.37;98703.41;4802779;29;20210;-71
2021/12/04 11:51:59;;;;;;;7.15;5.05;;;;;;;3.84;86.56;98697.78;5028958;23;20054;-71
2021/12/04 11:59:27;;;;;;;6.47;4.65;;;;;;;4.13;84.55;98682.44;4836201;29;20108;-65
2021/12/04 12:02:31;;;;;;;6.85;5.13;;;;;;;3.78;85.70;98681.78;4835944;29;20093;-65
2021/12/04 12:05:54;;;;;;;7.63;5.35;;;;;;;4.03;85.35;98681.28;4847793;29;20098;-65
2021/12/04 12:09:14;;;;;;;6.53;4.80;;;;;;;4.00;86.45;98665.94;4818748;29;20183;-65
2021/12/04 12:12:32;;;;;;;6.18;4.15;;;;;;;4.16;85.11;98669.34;4819222;29;20094;-65
2021/12/04 12:15:36;;;;;;;6.57;4.20;;;;;;;4.19;84.38;98656.22;4819856;29;20457;-65
2021/12/04 12:18:58;;;;;;;6.28;4.60;;;;;;;4.22;84.75;98643.13;4832311;29;20096;-65
2021/12/04 12:22:18;;;;;;;7.05;3.78;;;;;;;4.28;84.54;98642.78;4855011;29;20078;-65
2021/12/04 12:32:14;;;;;;;6.95;4.68;;;;;;;4.38;85.32;98640.50;4837181;29;20056;-65
2021/12/04 12:38:59;;;;;;;6.85;5.00;;;;;;;4.28;85.34;98624.66;4818676;29;20054;-65
2021/12/04 12:42:02;;;;;;;6.93;4.80;;;;;;;4.30;85.36;98624.56;4818617;29;20051;-65
2021/12/04 12:45:21;;;;;;;6.18;3.75;;;;;;;4.41;84.99;98614.47;4832446;29;20231;-66
2021/12/04 12:48:25;;;;;;;6.38;4.63;;;;;;;4.36;84.95;98606.94;4836253;29;20419;-65
2021/12/04 12:51:30;;;;;;;;;;;;;;;4.38;85.42;98599.09;4836743;29;20053;-65
2021/12/04 12:54:39;;;;;;;7.95;4.28;;;;;;;4.42;85.56;98593.66;4836115;29;19936;-65
2021/12/04 12:57:44;;;;;;;6.30;4.45;;;;;;;4.44;85.55;98578.06;4835406;29;20144;-65
2021/12/04 13:14:42;;;;;;;6.40;4.13;;;;;;;4.45;85.98;98571.13;4836174;29;20048;-65
2021/12/04 13:17:46;;;;;;;9.43;4.47;;;;;;;4.50;85.51;98566.47;4836137;29;20056;-65
2021/12/04 13:20:51;;;;;;;5.03;3.80;;;;;;;4.52;85.85;98554.28;4835822;29;20182;-66
2021/12/04 13:23:57;;;;;;;5.95;4.07;;;;;;;4.52;85.45;98546.53;4836411;29;20519;-65
2021/12/04 13:30:15;;;;;;;10.52;4.40;;;;;;;4.41;86.26;98581.66;4853852;29;20105;-65
2021/12/04 13:33:19;;;;;;;17.52;10.07;;;;;;;3.97;87.81;98610.03;4854214;29;20133;-65
2021/12/04 13:36:27;;;;;;;27.10;18.33;;;;;;;4.01;88.57;98577.06;4854972;29;20072;-65
2021/12/04 13:39:31;;;;;;;13.38;9.45;;;;;;;4.09;88.44;98552.47;4855157;29;20067;-65
2021/12/04 13:45:59;;;;;;;12.35;7.07;;;;;;;4.28;87.33;98562.59;5309730;23;20050;-71
2021/12/04 13:49:03;;;;;;;10.30;7.13;;;;;;;3.97;88.83;98572.06;4818080;29;20053;-71
2021/12/04 13:52:12;;;;;;;12.82;7.47;;;;;;;3.88;89.76;98551.91;4815422;29;20075;-71
2021/12/04 13:55:17;;;;;;;8.57;5.75;;;;;;;4.16;89.20;98543.41;4815347;29;20058;-71
2021/12/04 13:58:22;;;;;;;13.57;7.28;;;;;;;4.28;89.20;98492.72;4800328;29;20073;-71
2021/12/04 14:01:28;;;;;;;8.48;6.50;;;;;;;4.30;89.00;98475.34;4800459;29;20440;-70
2021/12/04 14:04:32;;;;;;;7.85;5.40;;;;;;;4.06;89.72;98494.91;4799311;29;20691;-70
2021/12/04 14:07:36;;;;;;;10.02;5.88;;;;;;;4.26;89.64;98491.97;4798942;29;20433;-70
2021/12/04 14:10:42;;;;;;;6.45;5.03;;;;;;;4.42;88.33;98497.91;4811907;29;20049;-70
2021/12/04 14:13:46;;;;;;;7.00;4.80;;;;;;;4.52;87.50;98489.59;4835617;29;20344;-70
2021/12/04 14:16:52;;;;;;;8.88;5.30;;;;;;;4.59;87.45;98488.28;4835361;29;20045;-70
2021/12/04 14:19:55;;;;;;;7.47;4.60;;;;;;;4.47;87.21;98489.03;4835826;29;20467;-71
2021/12/04 14:22:59;;;;;;;7.22;4.47;;;;;;;4.53;87.67;98494.69;4836413;29;20076;-71
2021/12/04 14:26:03;;;;;;;8.65;4.45;;;;;;;4.55;87.75;98492.00;4817683;29;20523;-70
2021/12/04 14:29:13;;;;;;;6.03;4.18;;;;;;;4.53;87.92;98496.44;4817534;29;20089;-71
2021/12/04 14:32:22;;;;;;;7.25;3.83;;;;;;;4.56;87.81;98496.25;4830597;29;20064;-71
2021/12/04 14:35:31;;;;;;;6.65;3.58;;;;;;;4.66;86.86;98502.56;4820783;29;20057;-65
2021/12/04 14:38:35;;;;;;;8.80;5.65;;;;;;;4.65;86.64;98498.28;4814413;29;20184;-64
2021/12/04 14:41:38;;;;;;;14.68;9.75;;;;;;;4.51;87.49;98503.47;4800911;29;20789;-64
2021/12/04 14:44:46;;;;;;;18.45;12.40;;;;;;;4.25;88.22;98494.66;4802338;29;20083;-65
2021/12/04 14:48:02;;;;;;;20.30;13.73;;;;;;;4.36;88.56;98495.69;4816616;29;20054;-64
2021/12/04 14:51:13;;;;;;;8.43;6.63;;;;;;;4.37;87.99;98494.78;4824070;29;20076;-64
2021/12/04 14:54:26;;;;;;;23.40;15.20;;;;;;;4.47;87.39;98489.03;4825391;29;20076;-64
2021/12/04 14:57:29;;;;;;;15.35;11.93;;;;;;;4.52;87.79;98487.00;4836358;29;20412;-65
2021/12/04 15:00:57;;;;;;;;;;;;;;;4.58;87.61;98481.47;4844078;29;20053;-65
2021/12/04 15:04:02;;;;;;;7.95;6.78;;;;;;;4.55;87.82;98494.59;4824154;29;20337;-65
2021/12/04 15:07:06;;;;;;;10.93;7.63;;;;;;;4.37;88.63;98499.09;4828044;29;20186;-65
2021/12/04 15:10:18;;;;;;;10.43;8.52;;;;;;;4.21;89.29;98504.34;4835281;29;20056;-65
2021/12/04 15:13:24;;;;;;;11.32;9.38;;;;;;;4.36;89.35;98521.56;4836336;29;20117;-65
2021/12/04 15:16:36;;;;;;;15.57;11.35;;;;;;;4.41;89.28;98521.28;4825558;29;20072;-65
2021/12/04 15:19:41;;;;;;;10.45;8.40;;;;;;;4.41;89.37;98524.72;4820942;29;20052;-65
2021/12/04 15:22:48;;;;;;;11.05;7.05;;;;;;;4.46;89.91;98521.84;4822281;29;20057;-66
2021/12/04 15:25:55;;;;;;;11.02;9.38;;;;;;;4.57;89.03;98531.56;4828366;29;20455;-72
2021/12/04 15:28:58;;;;;;;16.75;7.40;;;;;;;4.63;88.86;98541.56;4828578;29;20095;-66
2021/12/04 15:32:06;;;;;;;;;;;;;;;4.69;88.26;98546.38;4826628;29;20580;-67
2021/12/04 15:38:46;;;;;;;7.07;5.03;;;;;;;4.81;88.17;98555.97;4827698;29;20588;-66
2021/12/04 15:54:52;;;;;;;;;;;;;;;4.70;88.50;98584.28;4825357;29;20347;-65
2021/12/04 15:58:00;;;;;;;15.55;10.63;;;;;;;4.71;88.37;98583.34;4819873;29;19970;-66
2021/12/04 16:01:07;;;;;;;10.10;6.68;;;;;;;4.76;88.67;98583.09;4819953;29;20041;-66
2021/12/04 16:04:32;;;;;;;13.73;9.93;;;;;;;4.84;88.00;98591.22;4827567;29;20098;-65
2021/12/04 16:07:36;;;;;;;9.68;7.43;;;;;;;4.94;87.74;98586.31;4832023;29;20057;-65
2021/12/04 16:10:42;;;;;;;11.70;7.75;;;;;;;4.86;87.71;98595.38;4825814;29;20114;-65
2021/12/04 16:13:52;;;;;;;13.95;8.85;;;;;;;4.78;88.46;98607.13;4826895;29;20106;-65
2021/12/04 16:16:55;;;;;;;11.38;9.05;;;;;;;4.75;88.53;98612.47;4825505;29;20069;-65
2021/12/04 16:20:09;;;;;;;;;;;;;;;4.80;88.48;98615.63;4825995;29;20056;-65
2021/12/04 16:23:14;;;;;;;11.60;8.48;;;;;;;4.68;88.73;98626.72;4819702;29;19979;-65
2021/12/04 16:26:23;;;;;;;13.02;8.90;;;;;;;4.76;88.60;98638.28;4819418;29;20142;-65
2021/12/04 16:30:10;;;;;;;12.88;9.63;;;;;;;4.89;88.20;98647.00;4829876;29;20096;-65
2021/12/04 16:36:36;;;;;;;4.13;3.10;;;;;;;4.82;89.08;98663.81;4832838;29;20084;-64
2021/12/04 16:39:39;;;;;;;6.10;4.57;;;;;;;5.00;88.32;98663.66;4827713;29;20057;-64
2021/12/04 16:42:43;;;;;;;11.48;6.22;;;;;;;5.10;88.23;98673.38;4831663;29;20118;-64
2021/12/04 16:45:53;;;;;;;;;;;;;;;5.09;87.97;98676.06;4830479;29;20061;-64
2021/12/04 16:48:58;;;;;;;13.45;9.75;;;;;;;5.09;87.73;98689.84;4827314;29;20299;-64
2021/12/04 16:59:14;;;;;;;17.27;12.18;;;;;;;5.18;86.05;98701.44;4822246;29;20081;-63
2021/12/04 17:02:19;;;;;;;9.65;6.85;;;;;;;5.11;86.27;98713.09;4829185;29;20038;-64
2021/12/04 17:05:24;;;;;;;7.55;5.82;;;;;;;5.15;85.64;98730.13;4827597;29;20049;-63
2021/12/04 17:08:27;;;;;;;11.77;8.27;;;;;;;5.25;86.38;98728.66;4828206;29;20523;-63
2021/12/04 17:11:30;;;;;;;;;;;;;;;5.27;85.85;98734.56;4822784;29;20120;-63
2021/12/04 17:14:36;;;;;;;6.32;4.85;;;;;;;5.31;85.47;98736.06;4824544;29;19973;-64
2021/12/04 17:17:43;;;;;;;10.30;8.25;;;;;;;5.25;85.06;98741.59;4824823;29;20077;-64
2021/12/04 17:20:49;;;;;;;11.88;9.43;;;;;;;5.24;85.44;98747.72;4828680;29;20049;-64
2021/12/04 17:23:52;;;;;;;11.15;9.02;;;;;;;5.22;85.94;98746.97;4824725;29;20053;-64
2021/12/04 17:26:58;;;;;;;3.50;2.40;;;;;;;5.23;85.18;98766.78;4823995;29;20460;-64
2021/12/04 17:30:07;;;;;;;6.07;3.70;;;;;;;5.25;84.61;98761.50;4824331;29;20471;-65
2021/12/04 17:33:10;;;;;;;6.28;3.90;;;;;;;5.27;85.63;98770.84;4825839;29;20183;-64
2021/12/04 17:36:15;;;;;;;5.65;2.40;;;;;;;5.40;84.26;98775.31;4828124;29;20049;-64
2021/12/04 17:39:19;;;;;;;5.50;4.45;;;;;;;5.34;84.40;98776.50;4829188;29;20121;-64
2021/12/04 17:42:26;;;;;;;5.43;4.05;;;;;;;5.35;84.50;98784.19;4831518;29;20531;-64
2021/12/04 17:45:29;;;;;;;6.93;3.25;;;;;;;5.46;83.95;98780.16;4820412;29;20115;-64
2021/12/04 17:48:33;;;;;;;12.57;5.43;;;;;;;5.46;84.48;98790.53;4831358;29;20057;-64
2021/12/04 17:51:36;;;;;;;4.40;2.75;;;;;;;5.33;84.88;98791.22;4825760;29;20383;-64
2021/12/04 17:54:39;;;;;;;4.38;2.08;;;;;;;5.98;81.83;98785.66;4828791;29;20134;-67
2021/12/04 17:57:42;;;;;;;;;;;;;;;5.83;82.14;98787.38;4830817;29;20092;-63
2021/12/04 18:00:50;;;;;;;8.80;3.80;;;;;;;5.63;82.27;98792.94;4828239;29;19972;-74
2021/12/04 18:04:22;;;;;;;5.47;3.20;;;;;;;5.64;82.86;98793.75;4827554;29;20106;-64
2021/12/04 18:07:26;;;;;;;6.57;3.85;;;;;;;5.58;81.37;98792.34;4834691;29;20094;-63
2021/12/04 18:10:32;;;;;;;9.40;5.13;;;;;;;5.54;82.57;98801.25;4833771;29;20058;-63
2021/12/04 18:13:41;;;;;;;7.00;4.07;;;;;;;5.53;84.26;98826.34;4832716;29;20053;-63
2021/12/04 18:16:49;;;;;;;7.22;4.43;;;;;;;5.58;84.51;98818.28;4838815;29;20061;-63
2021/12/04 18:19:52;;;;;;;9.18;6.20;;;;;;;5.71;83.34;98831.34;4829892;29;20478;-63
2021/12/04 18:22:56;;;;;;;;;;;;;;;5.50;85.15;98818.75;4840128;29;20121;-63
2021/12/04 18:26:01;;;;;;;7.18;5.00;;;;;;;5.53;84.15;98828.09;4843961;29;19923;-63
2021/12/04 18:29:07;;;;;;;8.85;6.28;;;;;;;5.56;84.35;98839.13;4838894;29;20106;-63
2021/12/04 18:32:10;;;;;;;14.82;11.80;;;;;;;5.53;85.21;98854.03;4833187;29;20073;-63
2021/12/04 18:35:15;;;;;;;;;;;;;;;5.55;83.72;98849.56;4832729;29;20053;-63
2021/12/04 18:38:19;;;;;;;12.07;8.27;;;;;;;5.74;83.66;98855.38;4807322;29;20344;-64
2021/12/04 18:41:22;;;;;;;9.68;3.38;;;;;;;5.52;82.31;98862.72;4806757;29;20262;-64
2021/12/04 18:44:26;;;;;;;;;;;;;;;5.51;82.88;98874.03;4827813;29;20165;-64
2021/12/04 18:47:29;;;;;;;;;;;;;;;5.63;83.60;98875.06;4822322;29;20078;-64
2021/12/04 18:50:36;;;;;;;5.78;3.70;;;;;;;5.35;82.61;98877.47;4826663;29;20008;-64
2021/12/04 18:53:41;;;;;;;5.53;3.60;;;;;;;5.51;82.72;98884.38;4830619;29;20470;-63
2021/12/04 18:56:44;;;;;;;4.50;2.58;;;;;;;5.29;81.84;98877.84;4839302;29;20580;-64
2021/12/04 18:59:48;;;;;;;5.57;2.55;;;;;;;5.30;84.05;98894.25;4833180;29;20077;-64
2021/12/04 19:02:57;;;;;;;6.47;2.55;;;;;;;5.20;82.27;98903.44;4832991;29;20179;-64
2021/12/04 19:06:00;;;;;;;3.38;1.40;;;;;;;5.12;81.06;98916.81;4828842;29;20098;-64
2021/12/04 19:09:09;;;;;;;5.50;2.95;;;;;;;5.18;82.48;98911.31;4837359;29;20107;-63
2021/12/04 19:12:14;;;;;;;5.53;3.10;;;;;;;5.15;81.55;98914.06;4826611;29;20065;-64
2021/12/04 19:15:22;;;;;;;4.90;2.63;;;;;;;5.20;81.98;98919.84;4834148;29;20049;-64